Time;durP1;ratioP1;P1;durP2;ratioP2;P2;SDS_P1;SDS_P2;PMS_P1;PMS_P2;Temp;Humidity;BMP_temperature;BMP_pressure;BME280_temperature;BME280_humidity;BME280_pressure;Samples;Min_cycle;Max_cycle;Signal;HPM_P1;HPM_P2
2022/12/01 00:00:07;;;;;;;32.75;15.38;;;;;;;0.72;100.00;96227.50;1030117;28;20018;-69
2022/12/01 00:00:37;;;;;;;38.96;17.70;;;;;;;0.64;100.00;96212.97;1032093;28;20064;-69
2022/12/01 00:01:08;;;;;;;39.80;16.77;;;;;;;0.72;100.00;96235.25;1030436;28;20030;-70
2022/12/01 00:01:39;;;;;;;42.63;17.58;;;;;;;0.71;100.00;96228.50;1030380;28;20026;-69
2022/12/01 00:02:09;;;;;;;36.03;17.38;;;;;;;0.69;100.00;96230.47;1027834;28;20023;-67
2022/12/01 00:02:39;;;;;;;40.88;17.15;;;;;;;0.69;100.00;96228.69;1025598;28;20515;-69
2022/12/01 00:03:10;;;;;;;42.13;18.05;;;;;;;0.72;100.00;96234.47;1030721;28;20010;-70
2022/12/01 00:03:40;;;;;;;39.15;17.73;;;;;;;0.72;100.00;96229.31;1034677;28;20045;-68
2022/12/01 00:04:11;;;;;;;39.65;16.85;;;;;;;0.69;100.00;96226.09;1034351;28;20025;-69
2022/12/01 00:04:41;;;;;;;38.22;16.92;;;;;;;0.68;100.00;96232.25;1034974;28;20026;-69
2022/12/01 00:05:12;;;;;;;39.05;17.50;;;;;;;0.71;100.00;96223.34;1039630;28;20096;-68
2022/12/01 00:05:42;;;;;;;41.75;17.10;;;;;;;0.60;100.00;96206.56;1030649;28;20023;-69
2022/12/01 00:06:15;;;;;;;38.42;15.80;;;;;;;0.71;100.00;96218.19;1027649;28;20047;-69
2022/12/01 00:06:45;;;;;;;39.92;16.98;;;;;;;0.72;100.00;96227.50;1026188;28;20803;-68
2022/12/01 00:07:15;;;;;;;38.22;17.02;;;;;;;0.72;100.00;96224.13;1026902;28;20259;-69
2022/12/01 00:07:49;;;;;;;35.45;16.33;;;;;;;0.73;100.00;96223.16;1022314;28;20457;-69
2022/12/01 00:08:19;;;;;;;41.30;17.28;;;;;;;0.74;100.00;96219.56;1030672;28;20093;-70
2022/12/01 00:10:28;;;;;;;37.76;16.44;;;;;;;0.78;100.00;96218.22;1035670;28;20450;-69
2022/12/01 00:11:06;;;;;;;35.13;16.55;;;;;;;0.80;100.00;96213.66;1040726;28;20030;-69
2022/12/01 00:11:36;;;;;;;39.38;17.14;;;;;;;0.80;100.00;96211.06;1043475;28;20358;-70
2022/12/01 00:12:07;;;;;;;40.53;17.75;;;;;;;0.76;100.00;96204.69;1042490;28;20546;-68
2022/12/01 00:12:42;;;;;;;37.25;16.27;;;;;;;0.76;100.00;96215.03;1035569;28;20017;-70
2022/12/01 00:13:12;;;;;;;40.94;17.16;;;;;;;0.80;100.00;96205.91;1034879;28;20021;-70
2022/12/01 00:13:43;;;;;;;40.22;17.85;;;;;;;0.79;100.00;96207.69;1035106;28;20049;-68
2022/12/01 00:14:15;;;;;;;36.95;17.70;;;;;;;0.82;100.00;96203.94;1037147;28;20025;-69
2022/12/01 00:14:53;;;;;;;39.00;16.83;;;;;;;0.77;100.00;96203.69;1043930;28;20027;-68
2022/12/01 00:15:33;;;;;;;43.30;16.90;;;;;;;0.79;100.00;96207.69;1034291;28;20272;-69
2022/12/01 00:16:11;;;;;;;38.38;16.80;;;;;;;0.80;100.00;96204.09;1034443;28;20396;-69
2022/12/01 00:16:43;;;;;;;35.52;16.26;;;;;;;0.81;100.00;96207.50;1030340;28;20016;-69
2022/12/01 00:17:13;;;;;;;41.02;17.12;;;;;;;0.79;100.00;96201.72;1037699;28;20026;-68
2022/12/01 00:17:44;;;;;;;38.33;17.30;;;;;;;0.79;100.00;96199.16;1034249;28;20017;-70
2022/12/01 00:18:15;;;;;;;35.45;16.20;;;;;;;0.79;100.00;96206.91;1027248;28;20531;-69
2022/12/01 00:18:48;;;;;;;37.28;16.80;;;;;;;0.76;100.00;96204.69;1030435;28;20234;-69
2022/12/01 00:19:19;;;;;;;40.30;17.90;;;;;;;0.77;100.00;96206.28;1022619;28;20054;-69
2022/12/01 00:19:49;;;;;;;33.53;16.27;;;;;;;0.77;100.00;96206.28;1027737;28;20041;-68
2022/12/01 00:20:20;;;;;;;39.53;17.73;;;;;;;0.74;100.00;96201.47;1035862;28;20427;-69
2022/12/01 00:20:54;;;;;;;39.92;18.35;;;;;;;0.77;100.00;96204.50;1035211;28;20033;-69
2022/12/01 00:21:25;;;;;;;41.52;18.00;;;;;;;0.77;100.00;96201.09;1034255;28;20052;-69
2022/12/01 00:21:56;;;;;;;40.63;17.33;;;;;;;0.80;100.00;96195.56;1030403;28;20057;-70
2022/12/01 00:22:26;;;;;;;36.25;15.82;;;;;;;0.80;100.00;96196.38;1026601;28;20826;-68
2022/12/01 00:22:56;;;;;;;43.33;17.65;;;;;;;0.82;100.00;96198.78;1033063;28;20570;-70
2022/12/01 00:23:27;;;;;;;39.35;17.35;;;;;;;0.83;100.00;96200.34;1034204;28;20021;-69
2022/12/01 00:23:57;;;;;;;36.42;16.42;;;;;;;0.80;100.00;96203.31;1034936;28;20033;-68
2022/12/01 00:24:28;;;;;;;40.00;16.30;;;;;;;0.57;100.00;96165.66;1038426;28;20581;-70
2022/12/01 00:24:58;;;;;;;39.38;17.80;;;;;;;0.79;100.00;96202.53;1038469;28;20395;-69
2022/12/01 00:25:29;;;;;;;39.95;16.67;;;;;;;0.70;100.00;96196.72;1038396;28;20029;-69
2022/12/01 00:26:03;;;;;;;37.65;17.83;;;;;;;0.78;100.00;96198.34;1034364;28;20037;-68
2022/12/01 00:26:34;;;;;;;37.66;16.50;;;;;;;0.80;100.00;96211.06;1030470;28;20117;-68
2022/12/01 00:27:04;;;;;;;37.67;16.30;;;;;;;0.77;100.00;96204.50;1022205;29;20255;-69
2022/12/01 00:27:35;;;;;;;38.53;17.13;;;;;;;0.79;100.00;96206.91;1023292;28;20019;-69
2022/12/01 00:28:05;;;;;;;39.72;17.05;;;;;;;0.81;100.00;96202.34;1034002;28;20025;-72
2022/12/01 00:28:35;;;;;;;36.20;15.73;;;;;;;0.82;100.00;96209.09;1040378;28;20025;-70
2022/12/01 00:29:06;;;;;;;43.80;18.20;;;;;;;0.82;100.00;96206.53;1043728;28;20021;-70
2022/12/01 00:29:36;;;;;;;39.33;17.20;;;;;;;0.81;100.00;96207.50;1036897;28;20026;-69
2022/12/01 00:30:09;;;;;;;35.20;15.45;;;;;;;0.84;100.00;96204.53;1030206;28;20285;-69
2022/12/01 00:30:39;;;;;;;37.50;16.56;;;;;;;0.84;100.00;96204.53;1026803;28;20026;-68
2022/12/01 00:31:11;;;;;;;35.08;15.63;;;;;;;0.83;100.00;96203.72;1029512;28;20528;-69
2022/12/01 00:31:41;;;;;;;38.12;16.64;;;;;;;0.78;100.00;96197.56;1030231;28;20022;-68
2022/12/01 00:32:12;;;;;;;38.30;16.15;;;;;;;0.77;100.00;96196.78;1026497;28;20145;-68
2022/12/01 00:32:43;;;;;;;36.85;17.15;;;;;;;0.74;100.00;96207.47;1026229;28;20447;-70
2022/12/01 00:33:13;;;;;;;39.83;17.27;;;;;;;0.66;100.00;96189.53;1030432;28;20353;-69
2022/12/01 00:33:44;;;;;;;38.67;16.92;;;;;;;0.60;100.00;96188.50;1034370;28;20017;-69
2022/12/01 00:34:22;;;;;;;37.15;17.27;;;;;;;0.72;100.00;96209.44;1030070;28;20026;-69
2022/12/01 00:34:52;;;;;;;38.96;16.60;;;;;;;0.66;100.00;96205.81;1030443;28;20026;-69
2022/12/01 00:35:23;;;;;;;41.17;17.65;;;;;;;0.65;100.00;96209.38;1030361;28;20022;-68
2022/12/01 00:35:59;;;;;;;40.78;17.52;;;;;;;0.67;100.00;96206.59;1030916;28;20025;-69
2022/12/01 00:36:30;;;;;;;41.62;17.22;;;;;;;0.69;100.00;96204.66;1034508;28;20108;-68
2022/12/01 00:37:00;;;;;;;36.58;17.13;;;;;;;0.69;100.00;96200.28;1037134;28;20105;-69
2022/12/01 00:37:32;;;;;;;38.00;16.55;;;;;;;0.73;100.00;96200.69;1036673;28;20029;-69
2022/12/01 00:38:02;;;;;;;42.62;17.78;;;;;;;0.70;100.00;96207.06;1034842;28;20105;-68
2022/12/01 00:38:33;;;;;;;38.20;17.85;;;;;;;0.73;100.00;96197.31;1034603;28;20064;-69
2022/12/01 00:39:03;;;;;;;41.28;17.70;;;;;;;0.64;100.00;96196.69;1034988;28;20093;-68
2022/12/01 00:39:33;;;;;;;44.72;17.50;;;;;;;0.70;100.00;96203.66;1034364;28;20415;-69
2022/12/01 00:40:05;;;;;;;38.63;16.90;;;;;;;0.62;100.00;96201.22;1034736;28;20060;-69
2022/12/01 00:40:35;;;;;;;39.32;17.48;;;;;;;0.66;100.00;96205.03;1030379;28;20030;-70
2022/12/01 00:41:06;;;;;;;38.83;17.70;;;;;;;0.69;100.00;96208.03;1026951;28;20042;-69
2022/12/01 00:41:36;;;;;;;43.42;18.08;;;;;;;0.67;100.00;96204.84;1030969;28;20045;-68
2022/12/01 00:42:07;;;;;;;48.95;17.30;;;;;;;0.64;100.00;96207.00;1030455;28;20108;-69
2022/12/01 00:42:37;;;;;;;38.15;16.92;;;;;;;0.66;100.00;96205.03;1033733;28;20058;-69
2022/12/01 00:43:08;;;;;;;44.40;18.05;;;;;;;0.67;100.00;96210.00;1034944;28;20037;-69
2022/12/01 00:43:38;;;;;;;38.50;17.98;;;;;;;0.65;100.00;96204.22;1034528;28;20488;-69
2022/12/01 00:44:09;;;;;;;38.45;17.77;;;;;;;0.63;100.00;96198.44;1030126;28;20073;-69
2022/12/01 00:44:39;;;;;;;45.13;17.52;;;;;;;0.73;100.00;96215.41;1030457;28;20038;-68
2022/12/01 00:45:13;;;;;;;44.90;17.85;;;;;;;0.73;100.00;96210.22;1030504;28;20428;-70
2022/12/01 00:45:43;;;;;;;43.55;17.50;;;;;;;0.70;100.00;96212.22;1030783;28;20126;-69
2022/12/01 00:46:14;;;;;;;39.92;17.20;;;;;;;0.69;100.00;96213.19;1030228;28;20375;-70
2022/12/01 00:46:44;;;;;;;42.80;18.75;;;;;;;0.69;100.00;96208.03;1031419;28;20400;-69
2022/12/01 00:47:15;;;;;;;43.40;18.10;;;;;;;0.72;100.00;96211.22;1039232;28;20026;-69
2022/12/01 00:47:45;;;;;;;44.22;17.65;;;;;;;0.66;100.00;96210.19;1030347;28;20349;-68
2022/12/01 00:48:16;;;;;;;41.42;17.38;;;;;;;0.66;100.00;96210.19;1030989;28;20031;-70
2022/12/01 00:48:46;;;;;;;42.30;16.85;;;;;;;0.68;100.00;96214.19;1030263;28;20034;-69
2022/12/01 00:49:17;;;;;;;39.10;16.42;;;;;;;0.63;100.00;96208.78;1030875;28;20038;-69
2022/12/01 00:49:47;;;;;;;38.00;16.02;;;;;;;0.66;100.00;96210.97;1039348;28;20030;-69
2022/12/01 00:50:18;;;;;;;43.78;17.45;;;;;;;0.64;100.00;96207.81;1038205;28;20033;-70
2022/12/01 00:50:52;;;;;;;43.17;18.17;;;;;;;0.62;100.00;96203.81;1038508;28;20030;-69
2022/12/01 00:51:23;;;;;;;38.88;18.22;;;;;;;0.59;100.00;96212.72;1030948;28;20101;-69
2022/12/01 00:51:54;;;;;;;45.10;17.98;;;;;;;0.54;100.00;96204.75;1031037;28;20113;-69
2022/12/01 00:52:24;;;;;;;43.85;16.98;;;;;;;0.51;100.00;96201.75;1037791;28;20034;-68
2022/12/01 00:52:57;;;;;;;38.08;16.65;;;;;;;0.48;100.00;96195.16;1032134;28;20045;-69
2022/12/01 00:53:28;;;;;;;38.30;16.92;;;;;;;0.58;100.00;96207.75;1030591;28;20039;-69
2022/12/01 00:53:59;;;;;;;40.70;17.92;;;;;;;0.60;100.00;96216.88;1028673;28;20038;-68
2022/12/01 00:54:32;;;;;;;43.63;17.17;;;;;;;0.61;100.00;96218.50;1030911;28;20029;-69
2022/12/01 00:55:03;;;;;;;43.20;17.45;;;;;;;0.61;100.00;96210.75;1031053;28;20088;-69
2022/12/01 00:55:33;;;;;;;41.92;17.60;;;;;;;0.63;100.00;96218.31;1030864;28;20351;-68
2022/12/01 00:56:04;;;;;;;41.72;16.67;;;;;;;0.59;100.00;96210.13;1026499;28;20102;-69
2022/12/01 00:56:34;;;;;;;43.03;18.23;;;;;;;0.60;100.00;96211.72;1023077;28;20119;-68
2022/12/01 00:57:05;;;;;;;39.65;17.60;;;;;;;0.63;100.00;96216.50;1026484;28;20042;-68
2022/12/01 00:57:35;;;;;;;41.88;17.85;;;;;;;0.65;100.00;96218.94;1030319;28;20609;-69
2022/12/01 00:58:06;;;;;;;40.60;17.63;;;;;;;0.65;100.00;96211.19;1039352;28;20030;-68
2022/12/01 00:58:36;;;;;;;40.42;16.55;;;;;;;0.67;100.00;96220.34;1038596;28;20056;-70
2022/12/01 00:59:07;;;;;;;39.83;17.17;;;;;;;0.61;100.00;96205.59;1038945;28;20025;-68
2022/12/01 00:59:37;;;;;;;37.75;16.45;;;;;;;0.70;100.00;96222.56;1034456;28;20037;-68
2022/12/01 01:00:09;;;;;;;42.78;17.85;;;;;;;0.68;100.00;96224.50;1031133;28;20440;-69
2022/12/01 01:00:39;;;;;;;40.08;18.04;;;;;;;0.68;100.00;96221.94;1030427;28;20034;-68
2022/12/01 01:01:09;;;;;;;41.08;17.35;;;;;;;0.68;100.00;96219.34;1030634;28;20035;-69
2022/12/01 01:01:40;;;;;;;43.00;17.00;;;;;;;0.68;100.00;96229.69;1031456;28;20041;-69
2022/12/01 01:02:10;;;;;;;37.65;16.15;;;;;;;0.69;100.00;96220.13;1026597;28;20035;-68
2022/12/01 01:02:41;;;;;;;40.72;17.10;;;;;;;0.68;100.00;96216.75;1031391;28;20026;-70
2022/12/01 01:03:11;;;;;;;35.13;17.35;;;;;;;0.66;100.00;96221.31;1028310;28;20058;-68
2022/12/01 01:03:42;;;;;;;40.83;17.13;;;;;;;0.66;100.00;96216.13;1027706;28;20600;-70
2022/12/01 01:04:12;;;;;;;40.42;17.05;;;;;;;0.68;100.00;96223.72;1029437;28;20027;-69
2022/12/01 01:04:43;;;;;;;42.88;17.65;;;;;;;0.67;100.00;96220.34;1031004;28;20481;-69
2022/12/01 01:05:13;;;;;;;43.30;17.58;;;;;;;0.65;100.00;96218.94;1038341;28;20029;-69
2022/12/01 01:05:44;;;;;;;41.92;17.00;;;;;;;0.62;100.00;96225.25;1034455;28;20037;-70
2022/12/01 01:06:15;;;;;;;38.20;16.55;;;;;;;0.61;100.00;96220.28;1035029;28;20498;-69
2022/12/01 01:06:45;;;;;;;46.56;17.76;;;;;;;0.61;100.00;96220.28;1032201;28;20034;-69
2022/12/01 01:07:16;;;;;;;41.25;17.70;;;;;;;0.53;100.00;96203.13;1027136;28;20038;-69
2022/12/01 01:07:47;;;;;;;41.72;16.73;;;;;;;0.60;100.00;96219.47;1027524;28;20049;-69
2022/12/01 01:08:17;;;;;;;40.45;16.48;;;;;;;0.63;100.00;96216.50;1030364;28;20042;-70
2022/12/01 01:08:48;;;;;;;37.38;16.42;;;;;;;0.62;100.00;96217.50;1035144;28;20030;-69
2022/12/01 01:09:18;;;;;;;40.58;17.02;;;;;;;0.63;100.00;96219.09;1036606;28;20029;-69
2022/12/01 01:09:48;;;;;;;37.78;15.27;;;;;;;0.63;100.00;96216.50;1038355;28;20029;-69
2022/12/01 01:10:19;;;;;;;37.22;16.77;;;;;;;0.67;100.00;96216.94;1038852;28;20395;-68
2022/12/01 01:10:49;;;;;;;39.15;16.05;;;;;;;0.68;100.00;96223.72;1038234;28;20283;-69
2022/12/01 01:11:20;;;;;;;38.58;17.40;;;;;;;0.71;100.00;96228.50;1038164;28;20044;-69
2022/12/01 01:11:51;;;;;;;41.92;18.00;;;;;;;0.68;100.00;96223.72;1034668;28;20455;-69
2022/12/01 01:12:22;;;;;;;37.80;16.27;;;;;;;0.68;100.00;96224.50;1033639;28;20145;-68
2022/12/01 01:12:52;;;;;;;43.53;17.50;;;;;;;0.66;100.00;96221.31;1030666;28;21099;-69
2022/12/01 01:13:23;;;;;;;35.55;16.90;;;;;;;0.70;100.00;96213.97;1030037;28;20132;-69
2022/12/01 01:13:53;;;;;;;37.20;15.90;;;;;;;0.67;100.00;96217.75;1025954;28;20090;-69
2022/12/01 01:14:24;;;;;;;38.38;17.02;;;;;;;0.61;100.00;96215.13;1028844;28;20477;-70
2022/12/01 01:14:54;;;;;;;35.30;15.85;;;;;;;0.63;100.00;96221.69;1022046;28;20042;-68
2022/12/01 01:15:25;;;;;;;39.20;17.00;;;;;;;0.64;100.00;96217.34;1025934;28;20037;-69
2022/12/01 01:16:02;;;;;;;36.65;16.70;;;;;;;0.63;100.00;96221.69;1031201;28;20098;-70
2022/12/01 01:16:33;;;;;;;33.54;15.44;;;;;;;0.61;100.00;96213.34;1030338;28;20558;-69
2022/12/01 01:17:03;;;;;;;35.47;16.20;;;;;;;0.61;100.00;96217.72;1025291;28;20035;-69
2022/12/01 01:17:34;;;;;;;37.63;15.77;;;;;;;0.61;100.00;96221.09;1030502;28;20030;-69
2022/12/01 01:18:04;;;;;;;39.40;16.63;;;;;;;0.61;100.00;96212.53;1034564;28;20117;-69
2022/12/01 01:18:35;;;;;;;40.08;16.33;;;;;;;0.55;100.00;96214.09;1031048;28;20014;-69
2022/12/01 01:19:05;;;;;;;35.25;16.15;;;;;;;0.57;100.00;96212.13;1034636;28;20176;-70
2022/12/01 01:19:36;;;;;;;36.63;15.95;;;;;;;0.61;100.00;96222.88;1029318;28;20036;-69
2022/12/01 01:20:07;;;;;;;34.28;15.18;;;;;;;0.60;100.00;96218.69;1028081;28;20058;-69
2022/12/01 01:20:37;;;;;;;37.70;15.20;;;;;;;0.59;100.00;96220.47;1030256;28;20144;-69
2022/12/01 01:21:11;;;;;;;38.22;15.95;;;;;;;0.59;100.00;96214.50;1030445;28;20273;-69
2022/12/01 01:21:41;;;;;;;39.82;16.88;;;;;;;0.60;100.00;96218.69;1030551;28;20113;-69
2022/12/01 01:22:12;;;;;;;36.05;16.00;;;;;;;0.61;100.00;96218.50;1035519;28;20549;-70
2022/12/01 01:22:42;;;;;;;40.38;16.50;;;;;;;0.60;100.00;96219.47;1030768;28;20115;-69
2022/12/01 01:23:13;;;;;;;39.33;15.68;;;;;;;0.47;100.00;96204.72;1033284;28;20313;-70
2022/12/01 01:23:43;;;;;;;38.22;17.45;;;;;;;0.61;100.00;96212.53;1034569;28;20542;-70
2022/12/01 01:24:14;;;;;;;35.30;15.65;;;;;;;0.60;100.00;96211.72;1034394;28;20539;-69
2022/12/01 01:24:44;;;;;;;44.53;16.35;;;;;;;0.62;100.00;96220.09;1034804;28;20026;-69
2022/12/01 01:25:15;;;;;;;40.45;16.85;;;;;;;0.62;100.00;96220.09;1034732;28;20026;-69
2022/12/01 01:25:45;;;;;;;35.75;15.65;;;;;;;0.51;100.00;96201.75;1034081;28;20392;-69
2022/12/01 01:26:18;;;;;;;39.80;16.15;;;;;;;0.56;100.00;96214.88;1031958;28;20030;-69
2022/12/01 01:26:49;;;;;;;38.74;16.94;;;;;;;0.58;100.00;96220.66;1026304;28;20023;-70
2022/12/01 01:27:19;;;;;;;36.47;15.82;;;;;;;0.59;100.00;96215.31;1025966;28;20536;-70
2022/12/01 01:27:50;;;;;;;42.22;17.05;;;;;;;0.61;100.00;96220.28;1027218;28;20026;-71
2022/12/01 01:28:20;;;;;;;40.05;16.65;;;;;;;0.64;100.00;96217.34;1034473;28;20033;-69
2022/12/01 01:28:51;;;;;;;39.85;17.33;;;;;;;0.54;100.00;96207.34;1038174;28;20041;-68
2022/12/01 01:29:21;;;;;;;37.80;16.80;;;;;;;0.60;100.00;96213.50;1034327;28;20423;-70
2022/12/01 01:29:52;;;;;;;35.67;15.70;;;;;;;0.55;100.00;96211.50;1029852;28;20037;-70
2022/12/01 01:30:22;;;;;;;43.13;18.38;;;;;;;0.63;100.00;96216.50;1025991;28;20031;-69
2022/12/01 01:30:53;;;;;;;44.50;18.08;;;;;;;0.60;100.00;96216.88;1030247;28;20030;-69
2022/12/01 01:31:24;;;;;;;38.92;16.60;;;;;;;0.51;100.00;96206.91;1031930;28;20104;-69
2022/12/01 01:31:54;;;;;;;45.50;16.78;;;;;;;0.62;100.00;96211.56;1025823;28;20199;-70
2022/12/01 01:32:25;;;;;;;39.00;16.45;;;;;;;0.60;100.00;96214.31;1025222;28;20158;-68
2022/12/01 01:32:55;;;;;;;35.67;16.13;;;;;;;0.60;100.00;96211.72;1021662;28;20042;-69
2022/12/01 01:33:26;;;;;;;37.97;16.73;;;;;;;0.60;100.00;96221.25;1024008;28;20062;-69
2022/12/01 01:33:56;;;;;;;37.78;16.38;;;;;;;0.50;100.00;96206.09;1029920;28;20030;-69
2022/12/01 01:34:27;;;;;;;38.92;15.73;;;;;;;0.56;100.00;96213.09;1029919;28;20082;-68
2022/12/01 01:34:57;;;;;;;40.78;16.90;;;;;;;0.53;100.00;96210.88;1030998;28;20054;-70
2022/12/01 01:35:28;;;;;;;37.45;16.85;;;;;;;0.56;100.00;96220.03;1026131;28;20201;-70
2022/12/01 01:35:59;;;;;;;36.55;16.30;;;;;;;0.54;100.00;96216.84;1023160;28;20035;-70
2022/12/01 01:36:29;;;;;;;46.03;17.38;;;;;;;0.58;100.00;96223.25;1028088;28;20031;-69
2022/12/01 01:37:00;;;;;;;39.80;16.13;;;;;;;0.57;100.00;96212.13;1028785;28;20504;-68
2022/12/01 01:37:30;;;;;;;40.28;17.05;;;;;;;0.57;100.00;96224.22;1030276;28;20026;-67
2022/12/01 01:38:01;;;;;;;41.50;17.33;;;;;;;0.59;100.00;96217.88;1030017;28;20068;-70
2022/12/01 01:38:31;;;;;;;35.47;16.02;;;;;;;0.52;100.00;96211.88;1033912;28;20033;-69
2022/12/01 01:39:02;;;;;;;42.15;17.50;;;;;;;0.48;100.00;96208.09;1022486;29;20031;-69
2022/12/01 01:39:32;;;;;;;42.97;17.35;;;;;;;0.53;100.00;96210.88;1020517;29;20036;-69
2022/12/01 01:40:03;;;;;;;41.28;16.48;;;;;;;0.56;100.00;96218.25;1018604;29;20135;-69
2022/12/01 01:40:34;;;;;;;46.42;17.33;;;;;;;0.60;100.00;96213.50;1031516;28;20070;-69
2022/12/01 01:41:04;;;;;;;40.40;17.40;;;;;;;0.56;100.00;96210.50;1034581;28;21035;-69
2022/12/01 01:41:35;;;;;;;39.88;16.52;;;;;;;0.61;100.00;96217.72;1030557;28;20041;-69
2022/12/01 01:42:07;;;;;;;41.03;15.98;;;;;;;0.60;100.00;96214.31;1029204;28;20081;-70
2022/12/01 01:42:38;;;;;;;40.60;16.12;;;;;;;0.60;100.00;96213.50;1027782;28;20035;-70
2022/12/01 01:43:16;;;;;;;38.15;16.88;;;;;;;0.52;100.00;96201.56;1027262;28;20125;-70
2022/12/01 01:43:54;;;;;;;42.10;16.42;;;;;;;0.52;100.00;96208.50;1034214;28;20037;-71
2022/12/01 01:44:50;;;;;;;41.20;17.56;;;;;;;0.56;100.00;96210.50;1028796;28;20069;-69
2022/12/01 01:45:22;;;;;;;38.66;16.70;;;;;;;0.50;100.00;96206.09;1030403;28;20030;-69
2022/12/01 01:45:52;;;;;;;40.14;16.84;;;;;;;0.56;100.00;96213.09;1030703;28;20080;-69
2022/12/01 01:46:26;;;;;;;40.35;16.40;;;;;;;0.57;100.00;96214.72;1041088;28;20098;-69
2022/12/01 01:46:56;;;;;;;39.86;17.74;;;;;;;0.56;100.00;96210.50;1038023;28;20017;-70
2022/12/01 01:47:30;;;;;;;44.53;17.67;;;;;;;0.60;100.00;96221.25;1030480;28;20049;-69
2022/12/01 01:48:02;;;;;;;42.33;17.77;;;;;;;0.56;100.00;96214.88;1026440;28;20034;-68
2022/12/01 01:48:33;;;;;;;46.65;19.25;;;;;;;0.53;100.00;96210.88;1034792;28;20779;-69
2022/12/01 01:49:08;;;;;;;44.90;17.23;;;;;;;0.49;100.00;96214.84;1030136;28;20315;-70
2022/12/01 01:49:39;;;;;;;38.54;17.22;;;;;;;0.50;100.00;96221.59;1030379;28;20030;-68
2022/12/01 01:50:11;;;;;;;45.20;18.30;;;;;;;0.48;100.00;96213.25;1030769;28;20531;-68
2022/12/01 01:50:41;;;;;;;43.24;18.54;;;;;;;0.45;100.00;96216.19;1024134;28;20020;-68
2022/12/01 01:51:12;;;;;;;40.92;17.63;;;;;;;0.48;100.00;96218.41;1031688;28;20484;-69
2022/12/01 01:51:45;;;;;;;42.45;17.77;;;;;;;0.47;100.00;96216.81;1034471;28;20013;-68
2022/12/01 01:52:16;;;;;;;41.42;17.34;;;;;;;0.51;100.00;96217.25;1027627;28;20140;-69
2022/12/01 01:52:49;;;;;;;40.45;17.35;;;;;;;0.39;100.00;96204.81;1028138;28;20643;-70
2022/12/01 01:53:20;;;;;;;43.08;17.96;;;;;;;0.51;100.00;96217.25;1031171;28;20018;-69
2022/12/01 01:53:51;;;;;;;48.08;19.02;;;;;;;0.48;100.00;96213.25;1031500;28;20470;-69
2022/12/01 01:54:32;;;;;;;47.47;19.05;;;;;;;0.51;100.00;96228.34;1023104;28;20039;-69
2022/12/01 01:55:03;;;;;;;51.54;18.84;;;;;;;0.48;100.00;96221.00;1019037;29;20374;-69
2022/12/01 01:55:33;;;;;;;46.00;17.48;;;;;;;0.47;100.00;96219.41;1022238;28;20846;-68
2022/12/01 01:56:04;;;;;;;50.28;19.20;;;;;;;0.47;100.00;96225.34;1026239;28;20016;-68
2022/12/01 01:56:35;;;;;;;44.33;17.63;;;;;;;0.46;100.00;96220.38;1019705;29;20477;-70
2022/12/01 01:57:06;;;;;;;47.90;18.23;;;;;;;0.50;100.00;96223.38;1019079;29;20767;-68
2022/12/01 01:57:36;;;;;;;45.42;18.50;;;;;;;0.51;100.00;96218.03;1024331;29;20875;-70
2022/12/01 01:58:08;;;;;;;41.50;17.83;;;;;;;0.50;100.00;96216.41;1027490;28;20041;-68
2022/12/01 01:58:38;;;;;;;48.56;19.04;;;;;;;0.52;100.00;96219.63;1033429;28;20018;-69
2022/12/01 01:59:10;;;;;;;42.92;19.05;;;;;;;0.42;100.00;96207.03;1031927;28;20029;-70
2022/12/01 01:59:46;;;;;;;43.94;17.50;;;;;;;0.51;100.00;96222.41;1028259;28;20679;-68
2022/12/01 02:00:17;;;;;;;43.30;17.90;;;;;;;0.50;100.00;96225.94;1019052;29;20028;-69
2022/12/01 02:00:48;;;;;;;45.16;18.30;;;;;;;0.49;100.00;96225.16;1027529;28;20027;-69
2022/12/01 02:01:18;;;;;;;45.78;18.00;;;;;;;0.48;100.00;96223.56;1029177;28;20170;-68
2022/12/01 02:01:54;;;;;;;38.05;17.63;;;;;;;0.45;100.00;96214.41;1027236;28;20023;-69
2022/12/01 02:02:24;;;;;;;48.18;17.90;;;;;;;0.49;100.00;96220.00;1027059;28;20070;-69
2022/12/01 02:02:55;;;;;;;46.20;17.85;;;;;;;0.50;100.00;96221.59;1023099;29;20031;-69
2022/12/01 02:03:25;;;;;;;45.05;17.55;;;;;;;0.50;100.00;96226.75;1021746;29;20102;-69
2022/12/01 02:03:56;;;;;;;49.70;19.35;;;;;;;0.38;100.00;96207.59;1019732;28;20046;-69
2022/12/01 02:04:27;;;;;;;42.63;18.10;;;;;;;0.45;100.00;96218.78;1027262;28;20027;-70
2022/12/01 02:04:59;;;;;;;46.50;18.10;;;;;;;0.48;100.00;96228.72;1032528;28;20532;-70
2022/12/01 02:05:32;;;;;;;51.62;19.22;;;;;;;0.45;100.00;96213.63;1035515;28;20346;-69
2022/12/01 02:06:03;;;;;;;43.46;19.10;;;;;;;0.51;100.00;96220.63;1031824;28;20054;-68
2022/12/01 02:06:33;;;;;;;49.70;18.36;;;;;;;0.50;100.00;96216.41;1031070;28;20033;-68
2022/12/01 02:07:04;;;;;;;49.15;19.15;;;;;;;0.52;100.00;96221.41;1023563;28;20110;-69
2022/12/01 02:07:34;;;;;;;48.88;19.02;;;;;;;0.50;100.00;96216.41;1026120;28;20790;-69
2022/12/01 02:08:11;;;;;;;51.60;19.20;;;;;;;0.49;100.00;96217.41;1031264;28;20038;-69
2022/12/01 02:08:41;;;;;;;50.78;19.22;;;;;;;0.48;100.00;96218.41;1024068;28;20034;-69
2022/12/01 02:09:12;;;;;;;50.40;19.98;;;;;;;0.44;100.00;96215.41;1024949;28;20035;-68
2022/12/01 02:09:42;;;;;;;51.13;18.70;;;;;;;0.40;100.00;96206.44;1027849;28;20037;-69
2022/12/01 02:10:13;;;;;;;54.92;19.90;;;;;;;0.45;100.00;96208.44;1029062;28;20030;-69
2022/12/01 02:11:04;;;;;;;49.63;17.77;;;;;;;0.44;100.00;96212.03;1031094;28;20034;-69
2022/12/01 02:11:47;;;;;;;53.55;19.27;;;;;;;0.45;100.00;96205.88;1030426;28;20022;-69
2022/12/01 02:12:43;;;;;;;50.00;19.52;;;;;;;0.45;100.00;96208.44;1026998;28;20129;-69
2022/12/01 02:13:31;;;;;;;55.04;19.66;;;;;;;0.45;100.00;96208.44;1028236;28;20058;-69
2022/12/01 02:14:08;;;;;;;54.14;19.38;;;;;;;0.40;100.00;96214.19;1030673;28;20118;-69
2022/12/01 02:15:01;;;;;;;49.58;19.28;;;;;;;0.36;100.00;96201.81;1041886;28;20039;-70
2022/12/01 02:16:02;;;;;;;56.26;18.92;;;;;;;0.39;100.00;96198.88;1039094;28;20025;-69
2022/12/01 02:16:35;;;;;;;54.04;18.96;;;;;;;0.41;100.00;96207.22;1035071;28;20443;-70
2022/12/01 02:17:30;;;;;;;54.88;20.00;;;;;;;0.36;100.00;96196.66;1033362;28;20042;-69
2022/12/01 02:18:18;;;;;;;61.68;20.84;;;;;;;0.40;100.00;96203.84;1028189;28;20046;-70
2022/12/01 02:18:55;;;;;;;54.58;19.58;;;;;;;0.37;100.00;96206.00;1031417;28;20165;-69
2022/12/01 02:19:44;;;;;;;58.78;20.44;;;;;;;0.40;100.00;96205.63;1023039;29;20031;-69
2022/12/01 02:20:26;;;;;;;60.02;20.40;;;;;;;0.40;100.00;96211.59;1035037;28;20030;-69
2022/12/01 02:21:44;;;;;;;54.22;19.40;;;;;;;0.34;100.00;96201.22;1035272;28;20036;-69
2022/12/01 02:22:40;;;;;;;64.68;20.52;;;;;;;0.34;100.00;96199.44;1033880;28;20540;-68
2022/12/01 02:23:37;;;;;;;53.96;18.64;;;;;;;0.36;100.00;96204.41;1034953;28;20094;-69
2022/12/01 02:24:13;;;;;;;65.06;21.22;;;;;;;0.34;100.00;96194.28;1036726;28;20102;-70
2022/12/01 02:25:12;;;;;;;62.12;20.36;;;;;;;0.36;100.00;96199.25;1039365;28;20022;-70
2022/12/01 02:26:13;;;;;;;68.22;23.76;;;;;;;0.37;100.00;96196.50;1030519;28;20042;-69
2022/12/01 02:26:50;;;;;;;64.82;20.88;;;;;;;0.35;100.00;96200.22;1034678;28;20030;-67
2022/12/01 02:27:32;;;;;;;62.90;19.88;;;;;;;0.38;100.00;96197.28;1029793;28;20492;-70
2022/12/01 02:28:20;;;;;;;62.28;21.18;;;;;;;0.38;100.00;96197.28;1041155;28;20079;-70
2022/12/01 02:29:07;;;;;;;67.60;20.30;;;;;;;0.39;100.00;96196.28;1034619;28;20116;-70
2022/12/01 02:30:07;;;;;;;63.86;21.58;;;;;;;0.39;100.00;96198.88;1026449;28;20007;-70
2022/12/01 02:30:43;;;;;;;62.15;21.00;;;;;;;0.38;100.00;96203.25;1024387;28;20541;-70
2022/12/01 02:31:23;;;;;;;62.52;21.64;;;;;;;0.39;100.00;96199.66;1030288;28;20606;-70
2022/12/01 02:31:57;;;;;;;62.14;21.30;;;;;;;0.36;100.00;96192.28;1030531;28;20061;-69
2022/12/01 02:32:38;;;;;;;72.20;23.38;;;;;;;0.42;100.00;96201.06;1029728;28;20038;-69
2022/12/01 02:33:17;;;;;;;67.25;21.15;;;;;;;0.42;100.00;96198.50;1025205;28;20524;-70